Time,TemperatureF,DewpointF,PressureIn,WindDirection,WindDirectionDegrees,WindSpeedMPH,WindSpeedGustMPH,Humidity,HourlyPrecipIn,Conditions,Clouds,dailyrainin,SoftwareType,DateUTC
2013-01-26 00:02:00,27.7,16.0,30.24,North,0,8.9,13.0,61,0.00,,CLR,0.00,VWS V14.01,2013-01-26 06:02:00,
2013-01-26 00:07:00,27.5,15.1,30.24,NW,315,10.2,11.5,59,0.00,,CLR,0.00,VWS V14.01,2013-01-26 06:07:00,
2013-01-26 00:13:00,27.1,13.9,30.24,NNW,338,8.1,16.4,57,0.00,,CLR,0.00,VWS V14.01,2013-01-26 06:13:00,
2013-01-26 00:18:00,27.0,13.4,30.24,NW,315,7.2,13.5,56,0.00,,CLR,0.00,VWS V14.01,2013-01-26 06:18:00,
2013-01-26 00:23:00,26.6,12.2,30.24,NW,315,5.1,10.6,54,0.00,,CLR,0.00,VWS V14.01,2013-01-26 06:23:00,
2013-01-26 00:28:00,26.2,11.4,30.24,NNW,338,8.5,16.8,53,0.00,,CLR,0.00,VWS V14.01,2013-01-26 06:28:00,
2013-01-26 00:33:00,26.0,11.7,30.24,NW,315,10.2,17.3,54,0.00,,CLR,0.00,VWS V14.01,2013-01-26 06:33:00,
2013-01-26 00:38:00,25.7,10.9,30.27,NW,315,14.0,15.9,53,0.00,,CLR,0.00,VWS V14.01,2013-01-26 06:38:00,
2013-01-26 00:43:00,25.5,10.4,30.27,NW,315,11.5,18.8,52,0.00,,CLR,0.00,VWS V14.01,2013-01-26 06:43:00,
2013-01-26 00:48:00,25.1,10.4,30.27,NNW,338,11.1,13.0,53,0.00,,CLR,0.00,VWS V14.01,2013-01-26 06:48:00,
2013-01-26 00:54:00,25.1,10.0,30.27,NW,315,16.6,18.8,52,0.00,,CLR,0.00,VWS V14.01,2013-01-26 06:54:00,
2013-01-26 00:59:00,25.0,9.8,30.27,NW,315,11.1,12.5,52,0.00,,CLR,0.00,VWS V14.01,2013-01-26 06:59:00,
2013-01-26 01:04:00,24.6,9.9,30.27,NNW,338,11.9,13.5,53,0.00,,CLR,0.00,VWS V14.01,2013-01-26 07:04:00,
2013-01-26 01:09:00,24.4,9.3,30.24,North,0,7.2,14.0,52,0.00,,CLR,0.00,VWS V14.01,2013-01-26 07:09:00,
2013-01-26 01:14:00,24.2,9.2,30.24,NW,315,12.8,14.4,52,0.00,,CLR,0.00,VWS V14.01,2013-01-26 07:14:00,
2013-01-26 01:19:00,23.9,8.8,30.24,NNW,338,10.6,13.0,52,0.00,,CLR,0.00,VWS V14.01,2013-01-26 07:19:00,
2013-01-26 01:24:00,23.7,8.7,30.27,NNW,338,8.1,10.1,52,0.00,,CLR,0.00,VWS V14.01,2013-01-26 07:24:00,
2013-01-26 01:29:00,23.4,8.3,30.27,NNW,338,10.2,11.5,52,0.00,,CLR,0.00,VWS V14.01,2013-01-26 07:29:00,
2013-01-26 01:34:00,23.2,8.2,30.27,NNW,338,7.2,8.7,52,0.00,,CLR,0.00,VWS V14.01,2013-01-26 07:34:00,
2013-01-26 01:39:00,23.0,8.0,30.27,NNE,22,6.4,8.7,52,0.00,,CLR,0.00,VWS V14.01,2013-01-26 07:39:00,
2013-01-26 01:44:00,22.8,7.8,30.27,NNE,22,6.4,8.7,52,0.00,,CLR,0.00,VWS V14.01,2013-01-26 07:44:00,
2013-01-26 01:50:00,22.8,8.2,30.27,NNE,22,5.1,10.1,53,0.00,,CLR,0.00,VWS V14.01,2013-01-26 07:50:00,
2013-01-26 01:55:00,22.6,8.1,30.27,NW,315,4.3,8.7,53,0.00,,CLR,0.00,VWS V14.01,2013-01-26 07:55:00,
2013-01-26 02:00:00,22.5,7.9,30.27,NNW,338,7.2,13.5,53,0.00,,CLR,0.00,VWS V14.01,2013-01-26 08:00:00,
2013-01-26 02:05:00,22.3,8.2,30.27,North,0,7.2,8.2,54,0.00,,CLR,0.00,VWS V14.01,2013-01-26 08:05:00,
2013-01-26 02:10:00,22.1,8.0,30.30,NNW,338,7.2,8.7,54,0.00,,CLR,0.00,VWS V14.01,2013-01-26 08:10:00,
2013-01-26 02:15:00,22.1,8.0,30.30,NW,315,7.7,8.7,54,0.00,,CLR,0.00,VWS V14.01,2013-01-26 08:15:00,
2013-01-26 02:20:00,21.9,7.8,30.30,NW,315,6.0,9.1,54,0.00,,CLR,0.00,VWS V14.01,2013-01-26 08:20:00,
2013-01-26 02:25:00,21.7,8.1,30.30,NW,315,5.5,7.2,55,0.00,,CLR,0.00,VWS V14.01,2013-01-26 08:25:00,
2013-01-26 02:30:00,21.5,7.9,30.30,NW,315,10.2,11.5,55,0.00,,CLR,0.00,VWS V14.01,2013-01-26 08:30:00,
2013-01-26 02:35:00,21.4,7.7,30.30,NW,315,5.5,10.6,55,0.00,,CLR,0.00,VWS V14.01,2013-01-26 08:35:00,
2013-01-26 02:40:00,21.2,7.6,30.30,NW,315,3.0,8.7,55,0.00,,CLR,0.00,VWS V14.01,2013-01-26 08:40:00,
2013-01-26 02:45:00,21.2,7.6,30.30,NW,315,5.1,7.2,55,0.00,,CLR,0.00,VWS V14.01,2013-01-26 08:45:00,
2013-01-26 02:51:00,21.0,7.4,30.30,NW,315,6.8,7.7,55,0.00,,CLR,0.00,VWS V14.01,2013-01-26 08:51:00,
2013-01-26 02:56:00,21.0,7.8,30.33,NW,315,5.1,6.3,56,0.00,,CLR,0.00,VWS V14.01,2013-01-26 08:56:00,
2013-01-26 03:01:00,20.8,7.6,30.33,WNW,292,3.8,4.3,56,0.00,,CLR,0.00,VWS V14.01,2013-01-26 09:01:00,
2013-01-26 03:06:00,20.6,7.8,30.33,WNW,292,3.0,6.3,57,0.00,,CLR,0.00,VWS V14.01,2013-01-26 09:06:00,
2013-01-26 03:11:00,20.3,8.3,30.33,NW,315,4.3,5.3,59,0.00,,CLR,0.00,VWS V14.01,2013-01-26 09:11:00,
2013-01-26 03:16:00,19.8,7.8,30.33,NNW,338,5.1,6.3,59,0.00,,CLR,0.00,VWS V14.01,2013-01-26 09:16:00,
2013-01-26 03:21:00,19.4,7.8,30.33,NNW,338,6.4,9.1,60,0.00,,CLR,0.00,VWS V14.01,2013-01-26 09:21:00,
2013-01-26 03:26:00,19.4,8.1,30.33,NNW,338,6.0,7.7,61,0.00,,CLR,0.00,VWS V14.01,2013-01-26 09:26:00,
2013-01-26 03:31:00,19.2,8.0,30.33,NNW,338,3.8,4.8,61,0.00,,CLR,0.00,VWS V14.01,2013-01-26 09:31:00,
2013-01-26 03:37:00,19.0,7.8,30.33,NW,315,4.7,7.2,61,0.00,,CLR,0.00,VWS V14.01,2013-01-26 09:37:00,
2013-01-26 03:42:00,19.0,8.2,30.33,NW,315,4.7,5.3,62,0.00,,CLR,0.00,VWS V14.01,2013-01-26 09:42:00,
2013-01-26 03:47:00,19.0,8.2,30.33,WNW,292,4.7,5.3,62,0.00,,CLR,0.00,VWS V14.01,2013-01-26 09:47:00,
2013-01-26 03:52:00,18.7,8.2,30.33,NW,315,5.1,6.3,63,0.00,,CLR,0.00,VWS V14.01,2013-01-26 09:52:00,
2013-01-26 03:57:00,18.7,8.2,30.33,NNW,338,6.4,8.2,63,0.00,,CLR,0.00,VWS V14.01,2013-01-26 09:57:00,
2013-01-26 04:02:00,18.7,8.2,30.33,NW,315,3.8,5.8,63,0.00,,CLR,0.00,VWS V14.01,2013-01-26 10:02:00,
2013-01-26 04:07:00,18.7,8.2,30.33,NW,315,3.8,5.3,63,0.00,,CLR,0.00,VWS V14.01,2013-01-26 10:07:00,
2013-01-26 04:12:00,18.3,8.2,30.33,NW,315,4.7,5.8,64,0.00,,CLR,0.00,VWS V14.01,2013-01-26 10:12:00,
2013-01-26 04:17:00,18.1,8.4,30.33,NW,315,6.4,7.2,65,0.00,,CLR,0.00,VWS V14.01,2013-01-26 10:17:00,
2013-01-26 04:22:00,18.0,8.2,30.33,NNW,338,5.5,6.3,65,0.00,,CLR,0.00,VWS V14.01,2013-01-26 10:22:00,
2013-01-26 04:27:00,17.8,8.0,30.33,NW,315,6.4,7.2,65,0.00,,CLR,0.00,VWS V14.01,2013-01-26 10:27:00,
2013-01-26 04:32:00,17.8,7.7,30.33,NNW,338,3.0,5.8,64,0.00,,CLR,0.00,VWS V14.01,2013-01-26 10:32:00,
2013-01-26 04:37:00,17.8,7.7,30.33,NW,315,3.0,4.3,64,0.00,,CLR,0.00,VWS V14.01,2013-01-26 10:37:00,
2013-01-26 04:42:00,17.8,7.7,30.33,NW,315,5.5,6.3,64,0.00,,CLR,0.00,VWS V14.01,2013-01-26 10:42:00,
2013-01-26 04:47:00,17.8,7.7,30.33,NW,315,2.6,4.3,64,0.00,,CLR,0.00,VWS V14.01,2013-01-26 10:47:00,
2013-01-26 04:52:00,17.8,7.7,30.33,NW,315,3.8,5.8,64,0.00,,CLR,0.00,VWS V14.01,2013-01-26 10:52:00,
2013-01-26 04:58:00,17.8,7.7,30.33,NNW,338,6.0,6.7,64,0.00,,CLR,0.00,VWS V14.01,2013-01-26 10:58:00,
2013-01-26 05:03:00,17.6,7.8,30.33,NW,315,5.1,5.8,65,0.00,,,0.00,VWS V14.01,2013-01-26 11:03:00,
2013-01-26 05:08:00,17.4,7.7,30.36,NNW,338,4.7,5.8,65,0.00,,,0.00,VWS V14.01,2013-01-26 11:08:00,
2013-01-26 05:13:00,17.0,7.7,30.36,NW,315,4.7,5.8,66,0.00,,,0.00,VWS V14.01,2013-01-26 11:13:00,
2013-01-26 05:18:00,17.0,7.7,30.36,NNW,338,5.5,7.2,66,0.00,,,0.00,VWS V14.01,2013-01-26 11:18:00,
2013-01-26 05:23:00,17.0,7.7,30.36,NW,315,6.0,6.7,66,0.00,,,0.00,VWS V14.01,2013-01-26 11:23:00,
2013-01-26 05:28:00,17.0,7.7,30.36,NW,315,2.6,5.3,66,0.00,,,0.00,VWS V14.01,2013-01-26 11:28:00,
2013-01-26 05:33:00,17.0,7.7,30.36,NW,315,5.5,8.7,66,0.00,,,0.00,VWS V14.01,2013-01-26 11:33:00,
2013-01-26 05:38:00,17.0,7.7,30.36,NNE,22,6.8,7.7,66,0.00,,,0.00,VWS V14.01,2013-01-26 11:38:00,
2013-01-26 05:43:00,17.0,7.7,30.36,NW,315,5.1,5.8,66,0.00,,,0.00,VWS V14.01,2013-01-26 11:43:00,
2013-01-26 05:48:00,17.0,7.7,30.36,NW,315,4.7,5.3,66,0.00,,,0.00,VWS V14.01,2013-01-26 11:48:00,
2013-01-26 05:53:00,17.0,7.7,30.36,WNW,292,0.0,0.0,66,0.00,,,0.00,VWS V14.01,2013-01-26 11:53:00,
2013-01-26 05:58:00,17.0,7.7,30.36,NNW,338,2.1,3.4,66,0.00,,,0.00,VWS V14.01,2013-01-26 11:58:00,
2013-01-26 06:04:00,17.0,7.3,30.36,WNW,292,2.6,3.4,65,0.00,,CLR,0.00,VWS V14.01,2013-01-26 12:04:00,
2013-01-26 06:09:00,17.0,7.3,30.36,NNW,338,0.0,2.4,65,0.00,,CLR,0.00,VWS V14.01,2013-01-26 12:09:00,
2013-01-26 06:14:00,17.0,7.3,30.36,NNW,338,0.0,0.0,65,0.00,,CLR,0.00,VWS V14.01,2013-01-26 12:14:00,
2013-01-26 06:19:00,17.0,7.7,30.36,NNW,338,0.0,0.0,66,0.00,,CLR,0.00,VWS V14.01,2013-01-26 12:19:00,
2013-01-26 06:24:00,17.2,7.5,30.33,NNW,338,3.8,4.8,65,0.00,,CLR,0.00,VWS V14.01,2013-01-26 12:24:00,
2013-01-26 06:29:00,17.2,7.2,30.33,NNW,338,2.1,3.4,64,0.00,,CLR,0.00,VWS V14.01,2013-01-26 12:29:00,
2013-01-26 06:34:00,17.0,7.3,30.33,NNE,22,0.0,2.4,65,0.00,,CLR,0.00,VWS V14.01,2013-01-26 12:34:00,
2013-01-26 06:39:00,17.0,7.3,30.33,NNE,22,2.6,2.9,65,0.00,,CLR,0.00,VWS V14.01,2013-01-26 12:39:00,
2013-01-26 06:44:00,17.2,7.5,30.33,NNE,22,0.0,0.0,65,0.00,,CLR,0.00,VWS V14.01,2013-01-26 12:44:00,
2013-01-26 06:49:00,17.0,7.3,30.33,NNW,338,0.0,0.0,65,0.00,,CLR,0.00,VWS V14.01,2013-01-26 12:49:00,
2013-01-26 06:54:00,17.2,7.2,30.33,NNE,22,2.6,2.9,64,0.00,,CLR,0.00,VWS V14.01,2013-01-26 12:54:00,
2013-01-26 06:59:00,17.0,7.3,30.33,NNW,338,0.0,0.0,65,0.00,,CLR,0.00,VWS V14.01,2013-01-26 12:59:00,
2013-01-26 07:04:00,17.0,7.3,30.33,NNW,338,0.0,2.4,65,0.00,,CLR,0.00,VWS V14.01,2013-01-26 13:04:00,
2013-01-26 07:10:00,16.9,7.2,30.33,NNW,338,1.7,2.9,65,0.00,,CLR,0.00,VWS V14.01,2013-01-26 13:10:00,
2013-01-26 07:15:00,16.9,7.2,30.33,NNW,338,0.0,0.0,65,0.00,,CLR,0.00,VWS V14.01,2013-01-26 13:15:00,
2013-01-26 07:20:00,16.3,7.0,30.33,ENE,68,2.1,4.3,66,0.00,,CLR,0.00,VWS V14.01,2013-01-26 13:20:00,
2013-01-26 07:25:00,16.5,7.2,30.33,ENE,68,0.0,4.3,66,0.00,,CLR,0.00,VWS V14.01,2013-01-26 13:25:00,
2013-01-26 07:30:00,16.7,7.3,30.33,ENE,68,0.0,0.0,66,0.00,,CLR,0.00,VWS V14.01,2013-01-26 13:30:00,
2013-01-26 07:35:00,16.3,7.0,30.33,NE,45,0.0,5.8,66,0.00,,CLR,0.00,VWS V14.01,2013-01-26 13:35:00,
2013-01-26 07:40:00,16.3,7.3,30.33,NE,45,3.8,4.3,67,0.00,,CLR,0.00,VWS V14.01,2013-01-26 13:40:00,
2013-01-26 07:45:00,16.3,7.3,30.33,NE,45,2.1,2.9,67,0.00,,CLR,0.00,VWS V14.01,2013-01-26 13:45:00,
2013-01-26 07:50:00,16.5,7.5,30.33,NE,45,2.1,2.9,67,0.00,,CLR,0.00,VWS V14.01,2013-01-26 13:50:00,
2013-01-26 07:55:00,16.7,7.7,30.30,ENE,68,6.0,6.7,67,0.00,,CLR,0.00,VWS V14.01,2013-01-26 13:55:00,
2013-01-26 08:00:00,16.7,7.7,30.30,NE,45,2.6,2.9,67,0.00,,CLR,0.00,VWS V14.01,2013-01-26 14:00:00,
2013-01-26 08:05:00,16.9,7.8,30.30,NNW,338,0.0,2.9,67,0.00,,CLR,0.00,VWS V14.01,2013-01-26 14:05:00,
2013-01-26 08:10:00,17.0,8.0,30.33,NNE,22,3.8,4.3,67,0.00,,CLR,0.00,VWS V14.01,2013-01-26 14:10:00,
2013-01-26 08:15:00,17.0,8.3,30.33,NE,45,2.6,3.4,68,0.00,,CLR,0.00,VWS V14.01,2013-01-26 14:15:00,
2013-01-26 08:21:00,17.2,8.2,30.33,NNW,338,4.7,5.3,67,0.00,,CLR,0.00,VWS V14.01,2013-01-26 14:21:00,
2013-01-26 08:26:00,17.2,8.5,30.30,NNE,22,6.4,8.2,68,0.00,,CLR,0.00,VWS V14.01,2013-01-26 14:26:00,
2013-01-26 08:31:00,17.6,8.5,30.30,North,0,3.0,5.3,67,0.00,,CLR,0.00,VWS V14.01,2013-01-26 14:31:00,
2013-01-26 08:36:00,17.8,8.7,30.30,NE,45,2.6,5.3,67,0.00,,CLR,0.00,VWS V14.01,2013-01-26 14:36:00,
2013-01-26 08:41:00,18.0,8.9,30.33,NE,45,4.7,5.3,67,0.00,,CLR,0.00,VWS V14.01,2013-01-26 14:41:00,
2013-01-26 08:46:00,18.1,9.0,30.33,NNW,338,6.4,7.2,67,0.00,,CLR,0.00,VWS V14.01,2013-01-26 14:46:00,
2013-01-26 08:51:00,18.3,9.2,30.33,NE,45,7.2,8.2,67,0.00,,CLR,0.00,VWS V14.01,2013-01-26 14:51:00,
2013-01-26 08:56:00,18.7,9.6,30.33,East,90,6.0,6.7,67,0.00,,CLR,0.00,VWS V14.01,2013-01-26 14:56:00,
2013-01-26 09:01:00,19.0,9.6,30.33,SE,135,3.0,5.3,66,0.00,,CLR,0.00,VWS V14.01,2013-01-26 15:01:00,
2013-01-26 09:06:00,19.4,9.9,30.33,ENE,68,1.7,3.4,66,0.00,,CLR,0.00,VWS V14.01,2013-01-26 15:06:00,
2013-01-26 09:11:00,19.6,9.7,30.33,NNE,22,5.1,5.8,65,0.00,,CLR,0.00,VWS V14.01,2013-01-26 15:11:00,
2013-01-26 09:16:00,19.9,10.1,30.33,NNE,22,4.3,7.2,65,0.00,,CLR,0.00,VWS V14.01,2013-01-26 15:16:00,
2013-01-26 09:21:00,20.3,9.7,30.36,ENE,68,4.7,6.3,63,0.00,,CLR,0.00,VWS V14.01,2013-01-26 15:21:00,
2013-01-26 09:27:00,20.5,9.9,30.36,ENE,68,6.8,7.7,63,0.00,,CLR,0.00,VWS V14.01,2013-01-26 15:27:00,
2013-01-26 09:32:00,20.6,10.1,30.36,NNE,22,2.1,2.4,63,0.00,,CLR,0.00,VWS V14.01,2013-01-26 15:32:00,
2013-01-26 09:37:00,21.0,10.4,30.30,NE,45,2.6,2.9,63,0.00,,CLR,0.00,VWS V14.01,2013-01-26 15:37:00,
2013-01-26 09:42:00,21.4,10.8,30.30,NNW,338,3.0,6.3,63,0.00,,CLR,0.00,VWS V14.01,2013-01-26 15:42:00,
2013-01-26 09:47:00,21.5,10.9,30.30,NNW,338,2.1,5.3,63,0.00,,CLR,0.00,VWS V14.01,2013-01-26 15:47:00,
2013-01-26 09:52:00,21.7,10.7,30.33,NNW,338,4.7,5.3,62,0.00,,CLR,0.00,VWS V14.01,2013-01-26 15:52:00,
2013-01-26 09:57:00,22.3,10.9,30.33,SSE,158,0.0,6.3,61,0.00,,CLR,0.00,VWS V14.01,2013-01-26 15:57:00,
2013-01-26 10:02:00,22.3,10.5,30.33,NNW,338,3.0,6.7,60,0.00,,CLR,0.00,VWS V14.01,2013-01-26 16:02:00,
2013-01-26 10:07:00,22.5,10.7,30.36,ENE,68,4.3,4.8,60,0.00,,CLR,0.00,VWS V14.01,2013-01-26 16:07:00,
2013-01-26 10:12:00,22.8,10.6,30.36,ESE,112,0.0,4.3,59,0.00,,CLR,0.00,VWS V14.01,2013-01-26 16:12:00,
2013-01-26 10:17:00,23.4,11.1,30.36,ESE,112,5.1,7.2,59,0.00,,CLR,0.00,VWS V14.01,2013-01-26 16:17:00,
2013-01-26 10:23:00,23.5,10.9,30.36,SSE,158,0.0,2.4,58,0.00,,CLR,0.00,VWS V14.01,2013-01-26 16:23:00,
2013-01-26 10:28:00,23.7,11.1,30.36,WNW,292,0.0,0.0,58,0.00,,CLR,0.00,VWS V14.01,2013-01-26 16:28:00,
2013-01-26 10:33:00,24.1,10.7,30.36,ENE,68,0.0,5.3,56,0.00,,CLR,0.00,VWS V14.01,2013-01-26 16:33:00,
2013-01-26 10:38:00,24.2,11.2,30.36,ENE,68,0.0,0.0,57,0.00,,CLR,0.00,VWS V14.01,2013-01-26 16:38:00,
2013-01-26 10:43:00,24.6,11.6,30.36,NNE,22,2.1,2.4,57,0.00,,CLR,0.00,VWS V14.01,2013-01-26 16:43:00,
2013-01-26 10:48:00,25.0,11.5,30.36,ENE,68,3.8,6.7,56,0.00,,CLR,0.00,VWS V14.01,2013-01-26 16:48:00,
2013-01-26 10:53:00,25.0,11.1,30.33,NNW,338,0.0,4.3,55,0.00,,CLR,0.00,VWS V14.01,2013-01-26 16:53:00,
2013-01-26 10:58:00,25.1,11.3,30.33,ENE,68,0.0,2.4,55,0.00,,CLR,0.00,VWS V14.01,2013-01-26 16:58:00,
2013-01-26 11:03:00,25.7,11.4,30.33,SSE,158,4.3,4.8,54,0.00,,CLR,0.00,VWS V14.01,2013-01-26 17:03:00,
2013-01-26 11:08:00,26.0,11.7,30.33,NE,45,3.8,6.3,54,0.00,,CLR,0.00,VWS V14.01,2013-01-26 17:08:00,
2013-01-26 11:13:00,26.2,11.4,30.33,ESE,112,3.8,5.3,53,0.00,,CLR,0.00,VWS V14.01,2013-01-26 17:13:00,
2013-01-26 11:18:00,26.0,11.3,30.33,ENE,68,2.6,5.3,53,0.00,,CLR,0.00,VWS V14.01,2013-01-26 17:18:00,
2013-01-26 11:23:00,26.4,11.6,30.33,East,90,4.7,5.3,53,0.00,,CLR,0.00,VWS V14.01,2013-01-26 17:23:00,
2013-01-26 11:28:00,27.0,12.1,30.33,SE,135,5.5,8.2,53,0.00,,CLR,0.00,VWS V14.01,2013-01-26 17:28:00,
2013-01-26 11:33:00,27.1,12.3,30.33,NNW,338,6.8,7.7,53,0.00,,CLR,0.00,VWS V14.01,2013-01-26 17:33:00,
2013-01-26 11:38:00,27.0,11.7,30.33,NNW,338,4.3,4.8,52,0.00,,CLR,0.00,VWS V14.01,2013-01-26 17:38:00,
2013-01-26 11:44:00,27.3,12.4,30.33,NNW,338,0.0,0.0,53,0.00,,CLR,0.00,VWS V14.01,2013-01-26 17:44:00,
2013-01-26 11:49:00,27.7,12.8,30.33,East,90,4.3,4.8,53,0.00,,CLR,0.00,VWS V14.01,2013-01-26 17:49:00,
2013-01-26 11:54:00,27.9,12.5,30.33,NW,315,4.7,8.2,52,0.00,,CLR,0.00,VWS V14.01,2013-01-26 17:54:00,
2013-01-26 11:59:00,27.9,12.5,30.33,NNE,22,4.7,6.3,52,0.00,,CLR,0.00,VWS V14.01,2013-01-26 17:59:00,
2013-01-26 12:04:00,28.0,12.2,30.33,NE,45,5.1,11.5,51,0.00,,CLR,0.00,VWS V14.01,2013-01-26 18:04:00,
2013-01-26 12:09:00,28.4,13.0,30.33,NNW,338,3.0,4.8,52,0.00,,CLR,0.00,VWS V14.01,2013-01-26 18:09:00,
2013-01-26 12:14:00,28.8,12.9,30.33,ESE,112,5.5,6.3,51,0.00,,CLR,0.00,VWS V14.01,2013-01-26 18:14:00,
2013-01-26 12:19:00,29.1,13.2,30.33,SSE,158,5.1,5.8,51,0.00,,CLR,0.00,VWS V14.01,2013-01-26 18:19:00,
2013-01-26 12:24:00,29.3,13.4,30.33,NW,315,5.5,6.3,51,0.00,,CLR,0.00,VWS V14.01,2013-01-26 18:24:00,
2013-01-26 12:29:00,29.3,13.4,30.33,NE,45,3.8,4.3,51,0.00,,CLR,0.00,VWS V14.01,2013-01-26 18:29:00,
2013-01-26 12:34:00,29.5,13.6,30.33,NE,45,5.5,6.3,51,0.00,,CLR,0.00,VWS V14.01,2013-01-26 18:34:00,
2013-01-26 12:39:00,29.8,13.9,30.33,NW,315,2.6,4.8,51,0.00,,CLR,0.00,VWS V14.01,2013-01-26 18:39:00,
2013-01-26 12:45:00,30.0,14.1,30.33,NW,315,0.0,4.8,51,0.00,,CLR,0.00,VWS V14.01,2013-01-26 18:45:00,
2013-01-26 12:50:00,30.5,13.7,30.33,South,180,2.1,3.4,49,0.00,,CLR,0.00,VWS V14.01,2013-01-26 18:50:00,
2013-01-26 12:55:00,30.7,14.3,30.33,WNW,292,0.0,2.9,50,0.00,,CLR,0.00,VWS V14.01,2013-01-26 18:55:00,
2013-01-26 13:00:00,30.9,13.5,30.33,SE,135,0.0,6.7,48,0.00,,CLR,0.00,VWS V14.01,2013-01-26 19:00:00,
2013-01-26 13:05:00,30.9,13.1,30.33,East,90,5.1,7.2,47,0.00,,CLR,0.00,VWS V14.01,2013-01-26 19:05:00,
2013-01-26 13:10:00,31.3,13.9,30.33,WSW,248,2.1,4.3,48,0.00,,CLR,0.00,VWS V14.01,2013-01-26 19:10:00,
2013-01-26 13:15:00,31.6,14.2,30.33,West,270,0.0,3.4,48,0.00,,CLR,0.00,VWS V14.01,2013-01-26 19:15:00,
2013-01-26 13:20:00,32.0,13.6,30.33,South,180,0.0,5.3,46,0.00,,CLR,0.00,VWS V14.01,2013-01-26 19:20:00,
2013-01-26 13:25:00,32.2,13.2,30.33,SE,135,2.6,3.4,45,0.00,,CLR,0.00,VWS V14.01,2013-01-26 19:25:00,
2013-01-26 13:30:00,32.3,13.4,30.33,SSE,158,4.3,4.8,45,0.00,,CLR,0.00,VWS V14.01,2013-01-26 19:30:00,
2013-01-26 13:35:00,32.3,13.4,30.33,WNW,292,4.7,6.7,45,0.00,,CLR,0.00,VWS V14.01,2013-01-26 19:35:00,
2013-01-26 13:40:00,32.7,14.2,30.33,WNW,292,3.8,6.3,46,0.00,,CLR,0.00,VWS V14.01,2013-01-26 19:40:00,
2013-01-26 13:45:00,32.9,13.4,30.33,SE,135,2.1,2.4,44,0.00,,CLR,0.00,VWS V14.01,2013-01-26 19:45:00,
2013-01-26 13:50:00,33.1,14.1,30.33,NW,315,5.1,5.8,45,0.00,,CLR,0.00,VWS V14.01,2013-01-26 19:50:00,
2013-01-26 13:55:00,33.1,14.1,30.33,SE,135,5.5,6.7,45,0.00,,CLR,0.00,VWS V14.01,2013-01-26 19:55:00,
2013-01-26 14:01:00,33.2,14.2,30.33,North,0,4.7,5.8,45,0.00,,CLR,0.00,VWS V14.01,2013-01-26 20:01:00,
2013-01-26 14:06:00,33.4,14.4,30.33,East,90,5.5,6.3,45,0.00,,CLR,0.00,VWS V14.01,2013-01-26 20:06:00,
2013-01-26 14:11:00,32.7,13.2,30.33,NNW,338,5.1,5.8,44,0.00,,CLR,0.00,VWS V14.01,2013-01-26 20:11:00,
2013-01-26 14:16:00,33.4,13.9,30.33,NE,45,5.1,6.3,44,0.00,,CLR,0.00,VWS V14.01,2013-01-26 20:16:00,
2013-01-26 14:21:00,33.6,14.6,30.33,SW,225,5.5,6.3,45,0.00,,CLR,0.00,VWS V14.01,2013-01-26 20:21:00,
2013-01-26 14:26:00,33.8,14.7,30.36,WNW,292,2.1,4.3,45,0.00,,CLR,0.00,VWS V14.01,2013-01-26 20:26:00,
2013-01-26 14:31:00,33.8,13.7,30.36,ESE,112,2.1,2.4,43,0.00,,CLR,0.00,VWS V14.01,2013-01-26 20:31:00,
2013-01-26 14:36:00,33.8,14.2,30.36,NE,45,2.6,6.3,44,0.00,,CLR,0.00,VWS V14.01,2013-01-26 20:36:00,
2013-01-26 14:41:00,33.8,13.7,30.33,ENE,68,2.6,4.8,43,0.00,,CLR,0.00,VWS V14.01,2013-01-26 20:41:00,
2013-01-26 14:46:00,34.0,14.4,30.33,NNE,22,2.1,2.9,44,0.00,,CLR,0.00,VWS V14.01,2013-01-26 20:46:00,
2013-01-26 14:51:00,34.0,13.8,30.36,SSE,158,0.0,2.4,43,0.00,,CLR,0.00,VWS V14.01,2013-01-26 20:51:00,
2013-01-26 14:56:00,34.3,14.2,30.36,SE,135,0.0,0.0,43,0.00,,CLR,0.00,VWS V14.01,2013-01-26 20:56:00,
2013-01-26 15:01:00,34.2,13.5,30.36,SSW,202,2.1,2.4,42,0.00,,CLR,0.00,VWS V14.01,2013-01-26 21:01:00,
2013-01-26 15:06:00,34.3,13.6,30.33,SSW,202,3.0,3.4,42,0.00,,CLR,0.00,VWS V14.01,2013-01-26 21:06:00,
2013-01-26 15:12:00,34.5,14.3,30.33,NW,315,4.3,5.8,43,0.00,,CLR,0.00,VWS V14.01,2013-01-26 21:12:00,
2013-01-26 15:16:00,34.3,14.2,30.33,East,90,1.7,3.4,43,0.00,,CLR,0.00,VWS V14.01,2013-01-26 21:16:00,
2013-01-26 15:21:00,34.3,13.6,30.33,SSE,158,5.1,6.7,42,0.00,,CLR,0.00,VWS V14.01,2013-01-26 21:21:00,
2013-01-26 15:27:00,34.5,14.3,30.33,East,90,0.0,2.4,43,0.00,,CLR,0.00,VWS V14.01,2013-01-26 21:27:00,
2013-01-26 15:32:00,34.5,13.8,30.33,WNW,292,3.0,4.3,42,0.00,,CLR,0.00,VWS V14.01,2013-01-26 21:32:00,
2013-01-26 15:37:00,34.7,14.5,30.36,SE,135,3.0,3.4,43,0.00,,CLR,0.00,VWS V14.01,2013-01-26 21:37:00,
2013-01-26 15:42:00,34.7,14.5,30.36,SSW,202,0.0,2.4,43,0.00,,CLR,0.00,VWS V14.01,2013-01-26 21:42:00,
2013-01-26 15:47:00,34.5,13.8,30.36,SSE,158,0.0,0.0,42,0.00,,CLR,0.00,VWS V14.01,2013-01-26 21:47:00,
2013-01-26 15:52:00,34.7,14.0,30.36,ENE,68,0.0,1.9,42,0.00,,CLR,0.00,VWS V14.01,2013-01-26 21:52:00,
2013-01-26 15:57:00,34.5,13.8,30.36,SSE,158,0.0,0.0,42,0.00,,CLR,0.00,VWS V14.01,2013-01-26 21:57:00,
2013-01-26 16:02:00,34.5,13.8,30.36,East,90,2.1,2.9,42,0.00,,CLR,0.00,VWS V14.01,2013-01-26 22:02:00,
2013-01-26 16:07:00,34.5,13.8,30.33,ESE,112,0.0,0.0,42,0.00,,CLR,0.00,VWS V14.01,2013-01-26 22:07:00,
2013-01-26 16:12:00,34.3,13.6,30.33,East,90,3.0,5.8,42,0.00,,CLR,0.00,VWS V14.01,2013-01-26 22:12:00,
2013-01-26 16:17:00,34.3,13.6,30.33,ESE,112,2.1,3.4,42,0.00,,CLR,0.00,VWS V14.01,2013-01-26 22:17:00,
2013-01-26 16:22:00,34.3,13.6,30.33,East,90,0.0,2.4,42,0.00,,CLR,0.00,VWS V14.01,2013-01-26 22:22:00,
2013-01-26 16:28:00,34.3,13.6,30.33,East,90,0.0,0.0,42,0.00,,CLR,0.00,VWS V14.01,2013-01-26 22:28:00,
2013-01-26 16:33:00,34.3,13.6,30.33,East,90,1.7,2.9,42,0.00,,CLR,0.00,VWS V14.01,2013-01-26 22:33:00,
2013-01-26 16:38:00,34.3,14.2,30.33,SE,135,0.0,0.0,43,0.00,,CLR,0.00,VWS V14.01,2013-01-26 22:38:00,
2013-01-26 16:43:00,34.2,14.0,30.33,East,90,0.0,0.0,43,0.00,,CLR,0.00,VWS V14.01,2013-01-26 22:43:00,
2013-01-26 16:48:00,34.0,14.4,30.33,East,90,0.0,0.0,44,0.00,,CLR,0.00,VWS V14.01,2013-01-26 22:48:00,
2013-01-26 16:53:00,33.8,13.7,30.33,SE,135,2.6,2.9,43,0.00,,CLR,0.00,VWS V14.01,2013-01-26 22:53:00,
2013-01-26 16:58:00,33.8,14.2,30.33,SE,135,0.0,0.0,44,0.00,,CLR,0.00,VWS V14.01,2013-01-26 22:58:00,
2013-01-26 17:03:00,33.6,14.0,30.33,East,90,0.0,1.9,44,0.00,,CLR,0.00,VWS V14.01,2013-01-26 23:03:00,
2013-01-26 17:09:00,33.4,13.9,30.36,East,90,0.0,0.0,44,0.00,,CLR,0.00,VWS V14.01,2013-01-26 23:09:00,
2013-01-26 17:14:00,33.2,13.7,30.36,East,90,0.0,0.0,44,0.00,,CLR,0.00,VWS V14.01,2013-01-26 23:14:00,
2013-01-26 17:19:00,33.1,14.1,30.36,East,90,0.0,0.0,45,0.00,,CLR,0.00,VWS V14.01,2013-01-26 23:19:00,
2013-01-26 17:24:00,33.1,14.1,30.36,East,90,0.0,0.0,45,0.00,,CLR,0.00,VWS V14.01,2013-01-26 23:24:00,
2013-01-26 17:29:00,32.7,13.7,30.36,East,90,0.0,0.0,45,0.00,,CLR,0.00,VWS V14.01,2013-01-26 23:29:00,
2013-01-26 17:34:00,32.5,14.1,30.36,East,90,2.1,2.9,46,0.00,,CLR,0.00,VWS V14.01,2013-01-26 23:34:00,
2013-01-26 17:39:00,32.2,14.2,30.36,East,90,0.0,0.0,47,0.00,,CLR,0.00,VWS V14.01,2013-01-26 23:39:00,
2013-01-26 17:44:00,32.2,14.2,30.36,SE,135,0.0,0.0,47,0.00,,CLR,0.00,VWS V14.01,2013-01-26 23:44:00,
2013-01-26 17:49:00,31.8,14.8,30.36,ESE,112,0.0,0.0,49,0.00,,CLR,0.00,VWS V14.01,2013-01-26 23:49:00,
2013-01-26 17:54:00,31.8,14.8,30.36,ESE,112,0.0,2.4,49,0.00,,CLR,0.00,VWS V14.01,2013-01-26 23:54:00,
2013-01-26 17:59:00,31.5,15.0,30.36,ESE,112,0.0,0.0,50,0.00,,CLR,0.00,VWS V14.01,2013-01-26 23:59:00,
2013-01-26 18:05:00,31.3,14.8,30.36,ESE,112,0.0,0.0,50,0.00,,CLR,0.00,VWS V14.01,2013-01-27 00:05:00,
2013-01-26 18:10:00,31.3,14.8,30.36,ESE,112,0.0,2.9,50,0.00,,CLR,0.00,VWS V14.01,2013-01-27 00:10:00,
2013-01-26 18:15:00,31.1,14.6,30.36,East,90,3.0,5.8,50,0.00,,CLR,0.00,VWS V14.01,2013-01-27 00:15:00,
2013-01-26 18:20:00,30.9,14.5,30.36,ESE,112,0.0,0.0,50,0.00,,CLR,0.00,VWS V14.01,2013-01-27 00:20:00,
2013-01-26 18:25:00,30.7,14.8,30.36,East,90,2.6,4.3,51,0.00,,CLR,0.00,VWS V14.01,2013-01-27 00:25:00,
2013-01-26 18:30:00,30.7,14.8,30.36,ESE,112,0.0,2.4,51,0.00,,CLR,0.00,VWS V14.01,2013-01-27 00:30:00,
2013-01-26 18:35:00,30.9,14.9,30.36,SE,135,2.1,2.4,51,0.00,,CLR,0.00,VWS V14.01,2013-01-27 00:35:00,
2013-01-26 18:40:00,30.9,14.9,30.36,SE,135,3.0,3.4,51,0.00,,CLR,0.00,VWS V14.01,2013-01-27 00:40:00,
2013-01-26 18:45:00,30.9,14.9,30.36,SSE,158,4.3,4.8,51,0.00,,CLR,0.00,VWS V14.01,2013-01-27 00:45:00,
2013-01-26 18:50:00,31.1,15.1,30.36,SSE,158,0.0,2.4,51,0.00,,CLR,0.00,VWS V14.01,2013-01-27 00:50:00,
2013-01-26 18:55:00,31.1,15.1,30.36,SSE,158,0.0,0.0,51,0.00,,CLR,0.00,VWS V14.01,2013-01-27 00:55:00,
2013-01-26 19:00:00,30.9,14.9,30.36,SE,135,5.5,6.3,51,0.00,,CLR,0.00,VWS V14.01,2013-01-27 01:00:00,
2013-01-26 19:05:00,30.7,15.2,30.36,SSE,158,0.0,0.0,52,0.00,,CLR,0.00,VWS V14.01,2013-01-27 01:05:00,
2013-01-26 19:10:00,30.7,15.2,30.36,ESE,112,0.0,1.9,52,0.00,,CLR,0.00,VWS V14.01,2013-01-27 01:10:00,
2013-01-26 19:15:00,30.7,15.2,30.36,SE,135,3.8,4.3,52,0.00,,CLR,0.00,VWS V14.01,2013-01-27 01:15:00,
2013-01-26 19:20:00,30.7,15.2,30.36,SE,135,0.0,3.4,52,0.00,,CLR,0.00,VWS V14.01,2013-01-27 01:20:00,
2013-01-26 19:25:00,30.7,15.2,30.36,SSE,158,3.8,4.3,52,0.00,,CLR,0.00,VWS V14.01,2013-01-27 01:25:00,
2013-01-26 19:30:00,30.7,15.2,30.36,SE,135,3.0,3.4,52,0.00,,CLR,0.00,VWS V14.01,2013-01-27 01:30:00,
2013-01-26 19:35:00,30.7,15.2,30.36,SE,135,4.3,5.8,52,0.00,,CLR,0.00,VWS V14.01,2013-01-27 01:35:00,
2013-01-26 19:40:00,30.9,15.4,30.36,SE,135,5.1,6.7,52,0.00,,CLR,0.00,VWS V14.01,2013-01-27 01:40:00,
2013-01-26 19:45:00,30.7,15.6,30.36,SE,135,0.0,0.0,53,0.00,,CLR,0.00,VWS V14.01,2013-01-27 01:45:00,
2013-01-26 19:50:00,30.7,15.6,30.36,East,90,2.6,2.9,53,0.00,,CLR,0.00,VWS V14.01,2013-01-27 01:50:00,
2013-01-26 19:55:00,30.9,15.8,30.36,ESE,112,0.0,0.0,53,0.00,,CLR,0.00,VWS V14.01,2013-01-27 01:55:00,
2013-01-26 20:00:00,30.9,15.8,30.36,ENE,68,0.0,4.3,53,0.00,,CLR,0.00,VWS V14.01,2013-01-27 02:00:00,
2013-01-26 20:05:00,30.9,15.8,30.36,East,90,0.0,0.0,53,0.00,,CLR,0.00,VWS V14.01,2013-01-27 02:05:00,
2013-01-26 20:11:00,31.1,16.0,30.33,East,90,0.0,0.0,53,0.00,,CLR,0.00,VWS V14.01,2013-01-27 02:11:00,
2013-01-26 20:16:00,31.1,16.0,30.33,ESE,112,0.0,0.0,53,0.00,,CLR,0.00,VWS V14.01,2013-01-27 02:16:00,
2013-01-26 20:21:00,31.1,16.0,30.33,ESE,112,0.0,0.0,53,0.00,,CLR,0.00,VWS V14.01,2013-01-27 02:21:00,
2013-01-26 20:26:00,31.1,16.4,30.33,ESE,112,0.0,3.4,54,0.00,,CLR,0.00,VWS V14.01,2013-01-27 02:26:00,
2013-01-26 20:31:00,31.1,16.4,30.33,ENE,68,2.6,3.4,54,0.00,,CLR,0.00,VWS V14.01,2013-01-27 02:31:00,
2013-01-26 20:36:00,31.1,16.8,30.33,ESE,112,0.0,1.9,55,0.00,,CLR,0.00,VWS V14.01,2013-01-27 02:36:00,
2013-01-26 20:41:00,31.1,16.4,30.33,East,90,0.0,1.9,54,0.00,,CLR,0.00,VWS V14.01,2013-01-27 02:41:00,
2013-01-26 20:46:00,31.1,16.8,30.33,ESE,112,2.6,3.4,55,0.00,,CLR,0.00,VWS V14.01,2013-01-27 02:46:00,
2013-01-26 20:52:00,30.9,16.7,30.36,ESE,112,0.0,0.0,55,0.00,,CLR,0.00,VWS V14.01,2013-01-27 02:52:00,
2013-01-26 20:57:00,30.9,17.1,30.36,East,90,3.0,3.4,56,0.00,,CLR,0.00,VWS V14.01,2013-01-27 02:57:00,
2013-01-26 21:02:00,30.7,16.9,30.36,SE,135,0.0,5.8,56,0.00,,CLR,0.00,VWS V14.01,2013-01-27 03:02:00,
2013-01-26 21:07:00,30.9,17.1,30.33,ESE,112,3.0,3.4,56,0.00,,CLR,0.00,VWS V14.01,2013-01-27 03:07:00,
2013-01-26 21:12:00,30.7,16.9,30.33,East,90,0.0,2.4,56,0.00,,CLR,0.00,VWS V14.01,2013-01-27 03:12:00,
2013-01-26 21:17:00,30.7,16.9,30.33,ESE,112,0.0,2.9,56,0.00,,CLR,0.00,VWS V14.01,2013-01-27 03:17:00,
2013-01-26 21:22:00,30.7,16.9,30.36,East,90,3.0,3.4,56,0.00,,CLR,0.00,VWS V14.01,2013-01-27 03:22:00,
2013-01-26 21:27:00,30.5,17.1,30.36,ENE,68,3.8,6.3,57,0.00,,CLR,0.00,VWS V14.01,2013-01-27 03:27:00,
2013-01-26 21:32:00,30.4,17.0,30.36,East,90,2.6,3.4,57,0.00,,CLR,0.00,VWS V14.01,2013-01-27 03:32:00,
2013-01-26 21:37:00,30.2,17.2,30.36,ESE,112,0.0,2.4,58,0.00,,CLR,0.00,VWS V14.01,2013-01-27 03:37:00,
2013-01-26 21:42:00,30.0,17.0,30.36,ESE,112,0.0,0.0,58,0.00,,CLR,0.00,VWS V14.01,2013-01-27 03:42:00,
2013-01-26 21:47:00,30.0,17.0,30.36,SSE,158,4.7,5.3,58,0.00,,CLR,0.00,VWS V14.01,2013-01-27 03:47:00,
2013-01-26 21:52:00,30.0,17.0,30.36,SE,135,2.6,2.9,58,0.00,,CLR,0.00,VWS V14.01,2013-01-27 03:52:00,
2013-01-26 21:58:00,29.8,16.9,30.36,ESE,112,3.8,4.3,58,0.00,,CLR,0.00,VWS V14.01,2013-01-27 03:58:00,
2013-01-26 22:03:00,29.8,16.9,30.36,East,90,0.0,0.0,58,0.00,,CLR,0.00,VWS V14.01,2013-01-27 04:03:00,
2013-01-26 22:08:00,29.5,17.3,30.36,SE,135,2.6,2.9,60,0.00,,CLR,0.00,VWS V14.01,2013-01-27 04:08:00,
2013-01-26 22:13:00,29.5,17.3,30.36,SE,135,3.8,4.8,60,0.00,,CLR,0.00,VWS V14.01,2013-01-27 04:13:00,
2013-01-26 22:18:00,29.3,17.1,30.36,SE,135,1.7,4.8,60,0.00,,CLR,0.00,VWS V14.01,2013-01-27 04:18:00,
2013-01-26 22:23:00,29.3,17.5,30.36,SE,135,4.3,4.8,61,0.00,,CLR,0.00,VWS V14.01,2013-01-27 04:23:00,
2013-01-26 22:28:00,29.1,17.4,30.36,SE,135,3.0,5.3,61,0.00,,CLR,0.00,VWS V14.01,2013-01-27 04:28:00,
2013-01-26 22:33:00,29.1,17.4,30.36,SE,135,2.6,5.3,61,0.00,,CLR,0.00,VWS V14.01,2013-01-27 04:33:00,
2013-01-26 22:38:00,29.1,17.4,30.33,SSE,158,5.1,6.3,61,0.00,,CLR,0.00,VWS V14.01,2013-01-27 04:38:00,
2013-01-26 22:43:00,28.9,17.6,30.33,SSE,158,1.7,5.8,62,0.00,,CLR,0.00,VWS V14.01,2013-01-27 04:43:00,
2013-01-26 22:48:00,28.9,17.6,30.33,SSE,158,2.1,5.3,62,0.00,,CLR,0.00,VWS V14.01,2013-01-27 04:48:00,
2013-01-26 22:53:00,28.9,17.6,30.33,ESE,112,4.7,5.3,62,0.00,,CLR,0.00,VWS V14.01,2013-01-27 04:53:00,
2013-01-26 22:58:00,28.8,17.4,30.33,SE,135,2.6,4.3,62,0.00,,CLR,0.00,VWS V14.01,2013-01-27 04:58:00,
2013-01-26 23:00:00,28.9,17.6,30.33,SSE,158,3.0,5.3,62,0.00,,CLR,0.00,VWS V14.01,2013-01-27 05:00:00,
2013-01-26 23:01:00,28.9,17.6,30.33,SE,135,6.4,7.2,62,0.00,,CLR,0.00,VWS V14.01,2013-01-27 05:01:00,
2013-01-26 23:03:00,28.8,17.4,30.33,SE,135,6.4,7.7,62,0.00,,CLR,0.00,VWS V14.01,2013-01-27 05:03:00,
2013-01-26 23:08:00,28.8,17.8,30.33,ESE,112,3.8,9.1,63,0.00,,CLR,0.00,VWS V14.01,2013-01-27 05:08:00,
2013-01-26 23:13:00,28.8,17.8,30.33,ESE,112,3.0,4.3,63,0.00,,CLR,0.00,VWS V14.01,2013-01-27 05:13:00,
2013-01-26 23:18:00,28.8,17.8,30.33,ESE,112,3.8,5.8,63,0.00,,CLR,0.00,VWS V14.01,2013-01-27 05:18:00,
2013-01-26 23:23:00,28.6,17.6,30.33,SE,135,2.1,2.9,63,0.00,,CLR,0.00,VWS V14.01,2013-01-27 05:23:00,
2013-01-26 23:28:00,28.6,17.6,30.33,East,90,3.0,4.8,63,0.00,,CLR,0.00,VWS V14.01,2013-01-27 05:28:00,
2013-01-26 23:33:00,28.4,17.8,30.33,East,90,0.0,4.8,64,0.00,,CLR,0.00,VWS V14.01,2013-01-27 05:33:00,
2013-01-26 23:38:00,28.2,17.6,30.33,SE,135,3.0,4.3,64,0.00,,CLR,0.00,VWS V14.01,2013-01-27 05:38:00,
2013-01-26 23:43:00,28.2,17.6,30.33,SE,135,2.6,2.9,64,0.00,,CLR,0.00,VWS V14.01,2013-01-27 05:43:00,
2013-01-26 23:48:00,28.2,17.2,30.33,East,90,0.0,4.3,63,0.00,,CLR,0.00,VWS V14.01,2013-01-27 05:48:00,
2013-01-26 23:53:00,28.2,17.2,30.33,SSE,158,0.0,0.0,63,0.00,,CLR,0.00,VWS V14.01,2013-01-27 05:53:00,
2013-01-26 23:58:00,27.9,17.6,30.33,ESE,112,0.0,6.3,65,0.00,,CLR,0.00,VWS V14.01,2013-01-27 05:58:00,